Time;durP1;ratioP1;P1;durP2;ratioP2;P2;SDS_P1;SDS_P2;PMS_P1;PMS_P2;Temp;Humidity;BMP_temperature;BMP_pressure;BME280_temperature;BME280_humidity;BME280_pressure;Samples;Min_cycle;Max_cycle;Signal;HPM_P1;HPM_P2
2022/08/10 00:02:42;;;;;;;3.90;2.65;;;;;;;-148.88;84.38;76094.09;4994533;28;20037;-84
2022/08/10 00:05:08;;;;;;;3.65;2.40;;;;;;;-148.88;85.64;76116.44;4995134;28;20026;-83
2022/08/10 00:07:33;;;;;;;3.60;2.40;;;;;;;-148.88;85.07;76102.22;4995060;28;20022;-82
2022/08/10 00:09:58;;;;;;;3.53;2.30;;;;;;;-148.88;84.81;76118.47;4993110;28;20059;-83
2022/08/10 00:12:24;;;;;;;3.47;2.55;;;;;;;-148.88;85.65;76126.59;4992495;28;20117;-83
2022/08/10 00:14:49;;;;;;;6.53;2.90;;;;;;;-148.88;86.23;76138.81;4992391;28;20029;-83
2022/08/10 00:17:14;;;;;;;4.43;2.40;;;;;;;-148.88;85.96;76128.66;4994210;28;20525;-83
2022/08/10 00:19:40;;;;;;;3.50;2.20;;;;;;;-148.88;85.78;76112.41;4993992;28;20029;-83
2022/08/10 00:22:05;;;;;;;2.85;2.20;;;;;;;-148.88;85.61;76102.22;4993701;28;20031;-83
2022/08/10 00:24:30;;;;;;;4.78;2.50;;;;;;;-148.88;85.39;76100.19;5000340;28;20085;-83
2022/08/10 00:26:55;;;;;;;5.05;2.28;;;;;;;-148.88;85.54;76098.16;4995534;28;20026;-83
2022/08/10 00:29:21;;;;;;;3.30;2.28;;;;;;;-148.88;85.46;76081.91;4994718;28;20026;-84
2022/08/10 00:31:46;;;;;;;3.75;2.40;;;;;;;-148.88;85.13;76085.97;4992818;28;20032;-83
2022/08/10 00:34:11;;;;;;;4.10;2.38;;;;;;;-148.88;85.49;76073.78;4993967;28;20101;-84
2022/08/10 00:36:37;;;;;;;4.22;2.20;;;;;;;-148.88;85.04;76075.81;4994746;28;20473;-83
2022/08/10 00:39:02;;;;;;;2.75;2.17;;;;;;;-148.88;85.32;76061.59;4993181;28;20026;-83
2022/08/10 00:41:28;;;;;;;4.05;2.08;;;;;;;-148.88;84.80;76055.50;4993154;28;20029;-83
2022/08/10 00:43:53;;;;;;;3.47;2.45;;;;;;;-148.88;84.56;76057.53;4994337;28;20081;-83
2022/08/10 00:46:18;;;;;;;4.60;2.53;;;;;;;-148.88;84.62;76061.59;4992845;28;20022;-83
2022/08/10 00:48:44;;;;;;;3.97;2.38;;;;;;;-148.88;84.36;76069.72;4993877;28;20033;-83
2022/08/10 00:51:10;;;;;;;2.67;2.13;;;;;;;-148.88;84.32;76069.72;4996230;28;20018;-83
2022/08/10 00:53:35;;;;;;;4.82;2.35;;;;;;;-148.88;84.90;76085.97;4997259;28;20033;-83
2022/08/10 00:56:00;;;;;;;4.10;2.83;;;;;;;-148.88;84.71;76128.66;4995885;28;20026;-83
2022/08/10 00:58:26;;;;;;;5.28;2.72;;;;;;;-148.88;86.12;76155.06;4997366;28;20489;-83
2022/08/10 01:00:51;;;;;;;4.38;2.60;;;;;;;-148.88;87.10;76171.31;4995974;28;20460;-83
2022/08/10 01:03:17;;;;;;;3.63;2.30;;;;;;;-148.88;88.61;76203.81;4995834;28;20023;-83
2022/08/10 01:06:00;;;;;;;3.75;2.90;;;;;;;-148.88;89.58;76195.69;4996123;28;20076;-83
2022/08/10 01:08:45;;;;;;;3.70;2.60;;;;;;;-148.88;89.47;76197.72;4997740;28;20084;-83
2022/08/10 01:11:21;;;;;;;3.65;2.83;;;;;;;-148.88;88.80;76191.63;4996201;28;20019;-83
2022/08/10 01:13:58;;;;;;;3.00;2.50;;;;;;;-148.88;88.16;76175.38;4996232;28;20026;-84
2022/08/10 01:16:31;;;;;;;5.28;2.90;;;;;;;-148.88;87.99;76187.56;4997347;28;20037;-83
2022/08/10 01:19:10;;;;;;;5.30;3.03;;;;;;;-148.88;89.32;76211.94;4996925;28;20030;-83
2022/08/10 01:22:30;;;;;;;4.78;3.10;;;;;;;-148.88;89.19;76216.00;4996331;28;20038;-83
2022/08/10 01:25:33;;;;;;;4.43;2.72;;;;;;;-148.88;90.29;76232.25;4993086;28;20125;-83
2022/08/10 01:28:25;;;;;;;4.63;3.40;;;;;;;-148.88;90.83;76244.44;4996686;28;20081;-83
2022/08/10 01:30:54;;;;;;;4.97;2.85;;;;;;;-148.88;90.51;76244.44;4997028;28;20113;-84
2022/08/10 01:33:32;;;;;;;7.13;3.17;;;;;;;-148.88;91.12;76232.25;4995520;28;20385;-84
2022/08/10 01:36:15;;;;;;;4.93;2.90;;;;;;;-148.88;90.41;76234.28;4998091;28;20137;-83
2022/08/10 01:38:45;;;;;;;3.03;2.63;;;;;;;-148.88;90.58;76232.25;4996796;28;20034;-84
2022/08/10 01:41:20;;;;;;;5.25;3.00;;;;;;;-148.88;90.36;76226.16;4996475;28;20065;-84
2022/08/10 01:43:53;;;;;;;4.57;2.97;;;;;;;-148.88;90.74;76228.19;4995048;28;20040;-83
2022/08/10 01:46:22;;;;;;;3.55;2.88;;;;;;;-148.88;90.60;76211.94;4995616;28;20113;-83
2022/08/10 01:48:51;;;;;;;3.92;2.92;;;;;;;-148.88;90.58;76203.81;4997278;28;20058;-83
2022/08/10 01:51:31;;;;;;;4.82;3.00;;;;;;;-148.88;90.75;76207.88;4996388;28;20362;-84
2022/08/10 01:54:08;;;;;;;6.53;3.00;;;;;;;-148.88;90.17;76197.72;4995475;28;20044;-83
2022/08/10 01:56:38;;;;;;;4.10;3.28;;;;;;;-148.88;89.38;76207.88;4996742;28;20023;-83
2022/08/10 01:59:14;;;;;;;4.95;3.00;;;;;;;-148.88;89.25;76207.88;4997036;28;20046;-83
2022/08/10 02:01:46;;;;;;;4.25;3.08;;;;;;;-148.88;89.35;76222.09;4996482;28;20039;-83
2022/08/10 02:04:14;;;;;;;5.75;3.05;;;;;;;-148.88;89.55;76236.31;4996441;28;20022;-84
2022/08/10 02:06:44;;;;;;;4.43;3.10;;;;;;;-148.88;90.63;76252.56;4994736;28;20061;-83
2022/08/10 02:09:15;;;;;;;4.93;3.17;;;;;;;-148.88;91.29;76240.38;4996120;28;20030;-83
2022/08/10 02:11:42;;;;;;;5.07;3.50;;;;;;;-148.88;90.46;76248.50;4996029;28;20014;-84
2022/08/10 02:14:10;;;;;;;5.75;3.30;;;;;;;-148.88;90.47;76240.38;4995939;28;20381;-83
2022/08/10 02:16:37;;;;;;;4.63;3.25;;;;;;;-148.88;90.16;76252.56;4994490;28;20441;-83
2022/08/10 02:19:04;;;;;;;4.63;3.30;;;;;;;-148.88;90.51;76256.63;4995976;28;20045;-83
2022/08/10 02:21:30;;;;;;;5.05;2.92;;;;;;;-148.88;91.12;76262.72;4994184;28;20026;-83
2022/08/10 02:23:59;;;;;;;4.97;3.22;;;;;;;-148.88;91.76;76254.59;4994506;28;20029;-83
2022/08/10 02:26:25;;;;;;;4.55;3.03;;;;;;;-148.88;90.92;76244.44;4994158;28;20481;-83
2022/08/10 02:28:52;;;;;;;4.55;2.72;;;;;;;-148.88;90.15;76244.44;4995722;28;20117;-84
2022/08/10 02:31:21;;;;;;;4.65;3.10;;;;;;;-148.88;89.82;76236.31;4995371;28;20432;-84
2022/08/10 02:33:49;;;;;;;4.70;3.78;;;;;;;-148.88;90.36;76238.34;4995818;28;20026;-83
2022/08/10 02:36:15;;;;;;;3.70;3.08;;;;;;;-148.88;90.85;76236.31;4994007;28;20502;-84
2022/08/10 02:38:50;;;;;;;6.10;3.80;;;;;;;-148.88;90.55;76230.22;4995804;28;20029;-83
2022/08/10 02:41:28;;;;;;;6.20;3.83;;;;;;;-148.88;91.16;76236.31;4994265;28;20069;-83
2022/08/10 02:44:00;;;;;;;6.00;3.30;;;;;;;-148.88;90.45;76232.25;4995549;28;20496;-83
2022/08/10 02:46:33;;;;;;;8.25;3.80;;;;;;;-148.88;90.34;76230.22;4993836;28;20026;-83
2022/08/10 02:49:01;;;;;;;4.22;3.30;;;;;;;-148.88;90.12;76232.25;4995358;28;20032;-84
2022/08/10 02:51:52;;;;;;;6.43;3.90;;;;;;;-148.88;90.36;76230.22;4994151;28;20029;-83
2022/08/10 02:54:23;;;;;;;6.45;3.60;;;;;;;-148.88;90.07;76236.31;4995166;28;20026;-83
2022/08/10 02:56:57;;;;;;;5.22;3.50;;;;;;;-148.88;89.60;76234.28;4994092;28;20485;-83
2022/08/10 02:59:28;;;;;;;7.05;3.63;;;;;;;-148.88;89.27;76236.31;4994152;28;20034;-83
2022/08/10 03:01:58;;;;;;;5.03;3.75;;;;;;;-148.88;89.29;76234.28;4995082;28;20381;-83
2022/08/10 03:04:31;;;;;;;4.40;3.28;;;;;;;-148.88;88.74;76236.31;4994439;28;20033;-83
2022/08/10 03:07:01;;;;;;;6.10;3.53;;;;;;;-148.88;88.94;76240.38;4995077;28;20481;-85
2022/08/10 03:09:28;;;;;;;5.57;3.55;;;;;;;-148.88;89.23;76238.34;4994609;28;20030;-83
2022/08/10 03:11:56;;;;;;;4.10;3.10;;;;;;;-148.88;89.31;76240.38;4993336;28;20030;-84
2022/08/10 03:14:23;;;;;;;5.70;3.55;;;;;;;-148.88;89.81;76244.44;4994075;28;20026;-84
2022/08/10 03:16:51;;;;;;;4.97;3.60;;;;;;;-148.88;89.97;76250.53;4994426;28;20023;-85
2022/08/10 03:19:19;;;;;;;5.03;3.30;;;;;;;-148.88;90.30;76248.50;4994495;28;20106;-85
2022/08/10 03:21:49;;;;;;;6.45;3.40;;;;;;;-148.88;90.13;76258.66;4994688;28;20049;-84
2022/08/10 03:24:21;;;;;;;6.45;3.60;;;;;;;-148.88;89.88;76268.81;4993497;28;20034;-84
2022/08/10 03:26:48;;;;;;;8.10;3.47;;;;;;;-148.88;90.04;76281.00;4994094;28;20041;-84
2022/08/10 03:29:14;;;;;;;4.88;3.50;;;;;;;-148.88;89.96;76270.84;4992715;28;20409;-84
2022/08/10 03:31:40;;;;;;;5.70;3.83;;;;;;;-148.88;89.97;76272.88;4992722;28;20030;-84
2022/08/10 03:34:06;;;;;;;4.20;3.15;;;;;;;-148.88;90.00;76272.88;4992896;28;20104;-84
2022/08/10 03:36:31;;;;;;;5.45;3.28;;;;;;;-148.88;89.67;76272.88;4993070;28;20069;-84
2022/08/10 03:38:58;;;;;;;4.75;3.65;;;;;;;-148.88;89.72;76270.84;4993986;28;20664;-84
2022/08/10 03:41:30;;;;;;;4.13;3.20;;;;;;;-148.88;89.59;76270.84;4976539;28;20026;-84
2022/08/10 03:43:57;;;;;;;3.92;3.22;;;;;;;-148.88;89.51;76264.75;4976724;28;20416;-84
2022/08/10 03:46:24;;;;;;;6.45;3.78;;;;;;;-148.88;89.52;76276.94;4993803;28;20448;-85
2022/08/10 03:48:54;;;;;;;5.22;3.85;;;;;;;-148.88;90.37;76274.91;4992727;28;20177;-85
2022/08/10 03:51:21;;;;;;;5.10;4.13;;;;;;;-148.88;90.52;76264.75;4992861;28;20079;-84
2022/08/10 03:53:48;;;;;;;6.18;4.15;;;;;;;-148.88;90.88;76258.66;4994280;28;20030;-84
2022/08/10 03:56:14;;;;;;;10.10;4.72;;;;;;;-148.88;91.35;76274.91;4993729;28;20026;-84
2022/08/10 03:58:39;;;;;;;8.20;4.68;;;;;;;-148.88;92.68;76281.00;4992817;28;20034;-84
2022/08/10 04:01:06;;;;;;;5.97;4.50;;;;;;;-148.88;92.34;76289.13;4992986;28;20463;-83
2022/08/10 04:03:31;;;;;;;6.00;4.57;;;;;;;-148.88;92.90;76301.31;4993588;28;20033;-84
2022/08/10 04:05:57;;;;;;;5.85;4.50;;;;;;;-148.88;94.16;76311.47;4992428;28;20130;-83
2022/08/10 04:08:22;;;;;;;6.10;4.82;;;;;;;-148.88;94.82;76327.72;4992921;28;20378;-84
2022/08/10 04:10:48;;;;;;;7.88;5.32;;;;;;;-148.88;96.04;76325.69;4992935;28;20113;-83
2022/08/10 04:13:13;;;;;;;5.90;5.28;;;;;;;-148.88;96.49;76321.63;4993875;28;20030;-84
2022/08/10 04:15:38;;;;;;;8.80;5.65;;;;;;;-148.88;96.25;76321.63;4993801;28;20473;-84
2022/08/10 04:18:03;;;;;;;7.82;5.35;;;;;;;-148.88;96.28;76317.56;4994772;28;20022;-83
2022/08/10 04:20:34;;;;;;;7.72;5.75;;;;;;;-148.88;96.51;76309.44;4993057;28;20475;-83
2022/08/10 04:23:03;;;;;;;7.40;6.30;;;;;;;-148.88;96.52;76307.41;4993939;28;20485;-83
2022/08/10 04:25:29;;;;;;;8.93;5.70;;;;;;;-148.88;96.80;76305.38;4994485;28;20031;-83
2022/08/10 04:27:55;;;;;;;8.25;5.53;;;;;;;-148.88;96.91;76313.50;4996877;28;20076;-84
2022/08/10 04:30:21;;;;;;;9.40;6.35;;;;;;;-148.88;97.75;76329.75;4998172;28;20026;-83
2022/08/10 04:32:53;;;;;;;9.65;6.25;;;;;;;-148.88;98.46;76346.00;4997803;28;20400;-83
2022/08/10 04:35:21;;;;;;;8.60;6.22;;;;;;;-148.88;99.21;76354.13;4997916;28;20026;-83
2022/08/10 04:37:49;;;;;;;8.10;6.10;;;;;;;-148.88;99.61;76358.19;4996469;28;20529;-83
2022/08/10 04:40:16;;;;;;;10.45;6.45;;;;;;;-148.88;99.69;76356.16;4998301;28;20084;-84
2022/08/10 04:42:42;;;;;;;8.00;6.47;;;;;;;-148.88;100.00;76364.28;4997726;28;20448;-84
2022/08/10 04:45:10;;;;;;;8.40;6.72;;;;;;;-148.88;100.00;76366.31;4997139;28;20029;-83
2022/08/10 04:47:38;;;;;;;11.25;6.80;;;;;;;-148.88;100.00;76382.56;4997187;28;20026;-84
2022/08/10 04:50:04;;;;;;;8.52;7.15;;;;;;;-148.88;100.00;76390.69;4995756;28;20050;-84
2022/08/10 04:52:29;;;;;;;9.15;7.57;;;;;;;-148.88;100.00;76396.78;4995825;28;20392;-83
2022/08/10 04:54:55;;;;;;;11.00;7.80;;;;;;;-148.88;100.00;76411.00;4995749;28;20064;-84
2022/08/10 04:57:20;;;;;;;12.63;7.80;;;;;;;-148.88;100.00;76411.00;4997219;28;20075;-83
2022/08/10 04:59:48;;;;;;;12.30;8.50;;;;;;;-148.88;100.00;76406.94;4997809;28;20157;-85
2022/08/10 05:02:14;;;;;;;9.73;7.90;;;;;;;-148.88;100.00;76419.16;4997196;28;20035;-84
2022/08/10 05:04:40;;;;;;;11.05;8.57;;;;;;;-148.88;100.00;76415.06;4997053;28;20029;-83
2022/08/10 05:07:11;;;;;;;13.63;8.48;;;;;;;-148.88;100.00;76406.94;4996396;28;20172;-84
2022/08/10 05:09:38;;;;;;;11.40;8.38;;;;;;;-148.88;100.00;76402.88;4996928;28;20038;-84
2022/08/10 05:12:04;;;;;;;12.18;8.48;;;;;;;-148.88;100.00;76396.78;4995826;28;20109;-86
2022/08/10 05:14:29;;;;;;;9.38;7.45;;;;;;;-148.88;100.00;76382.56;4996582;28;20068;-85
2022/08/10 05:16:57;;;;;;;8.40;7.50;;;;;;;-148.88;100.00;76374.44;4995734;28;20026;-84
2022/08/10 05:19:22;;;;;;;11.13;8.18;;;;;;;-148.88;100.00;76368.34;4995588;28;20034;-85
2022/08/10 05:21:47;;;;;;;10.23;7.93;;;;;;;-148.88;100.00;76352.09;4995181;28;20030;-84
2022/08/10 05:24:13;;;;;;;9.90;7.35;;;;;;;-148.88;100.00;76350.06;4996845;28;20028;-85
2022/08/10 05:26:38;;;;;;;12.02;8.02;;;;;;;-148.88;100.00;76350.06;4996821;28;20066;-85
2022/08/10 05:29:03;;;;;;;10.82;8.00;;;;;;;-148.88;100.00;76341.94;4996550;28;20543;-83
2022/08/10 05:31:29;;;;;;;11.95;7.80;;;;;;;-148.88;100.00;76343.97;4996499;28;20022;-85
2022/08/10 05:33:54;;;;;;;10.82;8.13;;;;;;;-148.88;100.00;76335.84;4996588;28;20022;-85
2022/08/10 05:36:19;;;;;;;10.85;7.57;;;;;;;-148.88;100.00;76341.94;4996001;28;20050;-86
2022/08/10 05:38:46;;;;;;;12.63;8.30;;;;;;;-148.88;100.00;76339.91;4996641;28;20547;-85
2022/08/10 05:41:13;;;;;;;10.45;7.47;;;;;;;-148.88;100.00;76333.81;4996494;28;20042;-84
2022/08/10 05:43:39;;;;;;;9.65;8.23;;;;;;;-148.88;100.00;76337.88;4994792;28;20023;-85
2022/08/10 05:46:05;;;;;;;10.13;7.97;;;;;;;-148.88;100.00;76327.72;4996815;28;20081;-83
2022/08/10 05:48:30;;;;;;;10.43;8.48;;;;;;;-148.88;100.00;76307.41;4996656;28;20026;-83
2022/08/10 05:50:56;;;;;;;9.90;7.82;;;;;;;-148.88;100.00;76301.31;4996576;28;20095;-84
2022/08/10 05:53:21;;;;;;;9.98;7.93;;;;;;;-148.88;100.00;76297.25;4994427;28;20026;-86
2022/08/10 05:55:46;;;;;;;9.30;7.57;;;;;;;-148.88;100.00;76291.16;4995896;28;20463;-85
2022/08/10 05:58:12;;;;;;;11.27;7.55;;;;;;;-148.88;100.00;76285.06;4996073;28;20539;-84
2022/08/10 06:00:39;;;;;;;8.65;6.80;;;;;;;-148.88;100.00;76270.84;4995806;28;20022;-85
2022/08/10 06:03:07;;;;;;;12.30;7.28;;;;;;;-148.88;100.00;76268.81;4995349;28;20033;-85
2022/08/10 06:05:37;;;;;;;10.98;7.00;;;;;;;-148.88;99.99;76266.78;4995523;28;20033;-86
2022/08/10 06:08:08;;;;;;;9.95;6.90;;;;;;;-148.88;100.00;76254.59;4995574;28;20026;-86
2022/08/10 06:10:36;;;;;;;8.05;6.65;;;;;;;-148.88;99.96;76248.50;4994396;28;20508;-86
2022/08/10 06:15:49;;;;;;;11.82;7.50;;;;;;;-148.88;99.50;76236.31;4996510;28;20034;-87
2022/08/10 06:18:14;;;;;;;9.40;6.65;;;;;;;-148.88;98.01;76222.09;4994787;28;20108;-87
2022/08/10 06:20:41;;;;;;;8.10;5.80;;;;;;;-148.88;97.59;76220.06;4995743;28;20061;-89
2022/08/10 06:23:06;;;;;;;7.90;5.57;;;;;;;-148.88;96.35;76207.88;4995655;28;20088;-87
2022/08/10 06:25:32;;;;;;;10.35;5.70;;;;;;;-148.88;96.27;76189.59;4995774;28;20022;-86
2022/08/10 06:28:00;;;;;;;6.72;4.97;;;;;;;-148.88;95.55;76187.56;4995451;28;20026;-88
2022/08/10 06:30:27;;;;;;;9.45;5.68;;;;;;;-148.88;94.62;76171.31;4993980;28;20076;-88
2022/08/10 06:32:55;;;;;;;7.70;5.07;;;;;;;-148.88;92.00;76161.16;4995261;28;20030;-88
2022/08/10 06:35:24;;;;;;;6.80;4.78;;;;;;;-148.88;91.93;76148.97;4995492;28;20026;-88
2022/08/10 06:37:52;;;;;;;5.75;4.50;;;;;;;-148.88;91.49;76134.72;4993971;28;20027;-87
2022/08/10 06:40:19;;;;;;;7.63;4.80;;;;;;;-148.88;90.21;76118.47;4994105;28;20036;-85
2022/08/10 06:42:50;;;;;;;6.53;4.45;;;;;;;-148.88;88.84;76102.22;4994247;28;20109;-84
2022/08/10 06:45:28;;;;;;;6.28;4.45;;;;;;;-148.88;88.84;76090.03;4995073;28;20458;-86
2022/08/10 06:48:04;;;;;;;9.20;4.93;;;;;;;-148.88;87.75;76079.88;4994491;28;20022;-85
2022/08/10 06:50:38;;;;;;;6.68;4.60;;;;;;;-148.88;85.20;76063.63;4994968;28;20030;-86
2022/08/10 06:53:11;;;;;;;7.22;4.57;;;;;;;-148.88;85.29;76049.41;4993490;28;20057;-87
2022/08/10 06:55:39;;;;;;;5.53;4.67;;;;;;;-148.88;84.94;76043.31;4994854;28;20030;-87
2022/08/10 06:58:06;;;;;;;5.97;4.70;;;;;;;-148.88;84.15;76029.09;4994819;28;20264;-86
2022/08/10 07:00:36;;;;;;;6.63;4.47;;;;;;;-148.88;82.47;76016.91;4993396;28;20026;-86
2022/08/10 07:03:09;;;;;;;6.53;4.13;;;;;;;-148.88;83.33;75992.53;4994939;28;20022;-86
2022/08/10 07:05:41;;;;;;;6.88;4.18;;;;;;;-148.88;83.57;75994.56;4994575;28;20077;-86
2022/08/10 07:08:08;;;;;;;7.80;3.92;;;;;;;-148.88;82.72;75980.34;4994595;28;20072;-85
2022/08/10 07:10:33;;;;;;;6.43;4.10;;;;;;;-148.88;79.29;75949.88;4994884;28;20026;-85
2022/08/10 07:13:01;;;;;;;6.80;4.07;;;;;;;-148.88;80.59;75931.59;4994424;28;20105;-85
2022/08/10 07:15:27;;;;;;;5.60;3.75;;;;;;;-148.88;80.79;75923.47;4993192;28;20037;-85
2022/08/10 07:17:53;;;;;;;7.00;3.80;;;;;;;-148.88;78.30;75905.19;4994349;28;20408;-85
2022/08/10 07:20:21;;;;;;;5.07;3.15;;;;;;;-148.88;78.50;75895.03;4994291;28;20022;-85
2022/08/10 07:22:50;;;;;;;5.13;3.63;;;;;;;-148.88;76.59;75862.53;4994363;28;20026;-85
2022/08/10 07:25:18;;;;;;;6.32;3.97;;;;;;;-148.88;77.12;75850.34;4994449;28;20085;-85
2022/08/10 07:27:45;;;;;;;5.35;3.38;;;;;;;-148.88;75.93;75838.16;4994472;28;20023;-85
2022/08/10 07:30:11;;;;;;;5.93;3.22;;;;;;;-148.88;73.57;75825.97;4994606;28;20160;-86
2022/08/10 07:32:38;;;;;;;7.30;3.17;;;;;;;-148.88;73.02;75809.72;4993157;28;20018;-86
2022/08/10 07:35:04;;;;;;;5.35;3.05;;;;;;;-148.88;71.98;75789.41;4994035;28;20026;-87
2022/08/10 07:37:33;;;;;;;6.68;3.20;;;;;;;-148.88;72.41;75777.22;4994383;28;20018;-87
2022/08/10 07:40:01;;;;;;;6.10;2.55;;;;;;;-148.88;71.67;75769.09;4993175;28;20439;-86
2022/08/10 07:42:28;;;;;;;7.22;2.72;;;;;;;-148.88;70.48;75742.69;4994417;28;20203;-88
2022/08/10 07:44:54;;;;;;;4.85;2.80;;;;;;;-148.88;69.53;75728.47;4994651;28;20022;-87
2022/08/10 07:47:28;;;;;;;3.33;2.30;;;;;;;-148.88;69.20;75722.38;4994393;28;20049;-87
2022/08/10 07:49:59;;;;;;;7.18;2.55;;;;;;;-148.88;67.49;75698.00;4994503;28;20109;-88
2022/08/10 07:52:25;;;;;;;5.20;2.25;;;;;;;-148.88;67.40;75683.78;4994226;28;20087;-87
2022/08/10 07:54:52;;;;;;;5.60;2.30;;;;;;;-148.88;66.20;75671.59;4994879;28;20026;-87
2022/08/10 07:57:27;;;;;;;5.90;2.30;;;;;;;-148.88;64.82;75643.16;4994769;28;20026;-87
2022/08/10 07:59:56;;;;;;;5.28;2.15;;;;;;;-148.88;63.30;75626.91;4994251;28;20507;-88
2022/08/10 08:02:33;;;;;;;6.13;2.38;;;;;;;-148.88;64.66;75612.69;4993991;28;20025;-86
2022/08/10 08:05:03;;;;;;;4.97;2.45;;;;;;;-148.88;63.64;75598.47;4992475;28;20037;-88
2022/08/10 08:07:30;;;;;;;7.18;2.50;;;;;;;-148.88;60.25;75574.13;4992462;28;20440;-88
2022/08/10 08:09:56;;;;;;;6.70;2.35;;;;;;;-148.88;62.19;75568.03;4993976;28;20109;-88
2022/08/10 08:12:23;;;;;;;4.28;2.25;;;;;;;-148.88;59.04;75553.81;4993528;28;20492;-89
2022/08/10 08:14:50;;;;;;;4.75;1.90;;;;;;;-148.88;57.69;75529.44;4993702;28;20474;-88
2022/08/10 08:17:16;;;;;;;3.95;1.92;;;;;;;-148.88;58.81;75523.34;4994071;28;20110;-89
2022/08/10 08:19:45;;;;;;;5.75;2.25;;;;;;;-148.88;57.67;75513.19;4994031;28;20065;-89
2022/08/10 08:22:11;;;;;;;4.85;1.92;;;;;;;-148.88;58.80;75507.09;4994124;28;20053;-87
2022/08/10 08:24:38;;;;;;;4.53;2.03;;;;;;;-148.88;56.69;75486.78;4993563;28;20488;-87
2022/08/10 08:27:04;;;;;;;4.35;2.25;;;;;;;-148.88;53.24;75466.47;4993810;28;20030;-86
2022/08/10 08:29:40;;;;;;;4.65;1.90;;;;;;;-148.88;55.33;75456.31;4993778;28;20478;-87
2022/08/10 08:32:05;;;;;;;4.15;1.77;;;;;;;-148.88;56.09;75458.34;4993786;28;20061;-86
2022/08/10 08:34:32;;;;;;;4.55;1.83;;;;;;;-148.88;57.46;75436.00;4993675;28;20101;-87
2022/08/10 08:37:02;;;;;;;10.77;2.75;;;;;;;-148.88;55.01;75411.63;4993492;28;20041;-87
2022/08/10 08:39:28;;;;;;;2.90;1.80;;;;;;;-148.88;53.21;75383.19;4992306;28;20050;-86
2022/08/10 08:42:10;;;;;;;3.88;1.70;;;;;;;-148.88;50.74;75381.16;4993525;28;20052;-86
2022/08/10 08:44:54;;;;;;;3.58;1.80;;;;;;;-148.88;50.64;75381.16;4992681;28;20046;-87
2022/08/10 08:47:44;;;;;;;15.48;8.07;;;;;;;-148.88;51.24;75352.72;4993282;28;20093;-87
2022/08/10 08:50:43;;;;;;;4.25;2.10;;;;;;;-148.88;50.43;75342.56;4993581;28;20022;-87
2022/08/10 08:53:43;;;;;;;3.90;1.92;;;;;;;-148.88;51.07;75308.03;4993741;28;20026;-87
2022/08/10 08:56:20;;;;;;;5.75;1.83;;;;;;;-148.88;51.18;75293.81;4993876;28;20373;-88
2022/08/10 08:58:49;;;;;;;2.80;1.85;;;;;;;-148.88;50.67;75285.69;4992243;28;20485;-87
2022/08/10 09:01:22;;;;;;;5.43;1.85;;;;;;;-148.88;51.19;75269.47;4993450;28;20030;-87
2022/08/10 09:04:03;;;;;;;4.97;2.10;;;;;;;-148.88;52.52;75257.28;4993546;28;20038;-87
2022/08/10 09:06:53;;;;;;;5.28;1.75;;;;;;;-148.88;50.76;75259.31;4991822;28;20072;-86
2022/08/10 09:09:33;;;;;;;3.72;1.73;;;;;;;-148.88;51.67;75245.09;4992858;28;20042;-86
2022/08/10 09:12:32;;;;;;;3.67;1.60;;;;;;;-148.88;51.81;75208.53;4995587;28;20109;-87
2022/08/10 09:15:03;;;;;;;4.70;2.00;;;;;;;-148.88;45.98;75167.91;4996627;28;20511;-86
2022/08/10 09:18:05;;;;;;;2.45;1.58;;;;;;;-148.88;47.34;75141.50;4996990;28;20026;-85
2022/08/10 09:20:47;;;;;;;4.88;1.92;;;;;;;-148.88;46.29;75127.28;4960311;28;20047;-86
2022/08/10 09:23:38;;;;;;;3.67;2.05;;;;;;;-148.88;45.74;75100.88;4996448;28;20054;-86
2022/08/10 09:26:13;;;;;;;5.72;1.58;;;;;;;-148.88;44.48;75100.88;4996413;28;20027;-86
2022/08/10 09:28:41;;;;;;;3.47;1.92;;;;;;;-148.88;43.75;75072.47;4996817;28;20088;-86
2022/08/10 09:31:09;;;;;;;3.65;1.42;;;;;;;-148.88;42.31;75058.25;4996232;28;20026;-86
2022/08/10 09:33:57;;;;;;;5.10;1.40;;;;;;;-148.88;41.63;75017.63;4997386;28;20041;-87
2022/08/10 09:36:35;;;;;;;4.82;1.50;;;;;;;-148.88;40.92;74993.25;4995062;28;20392;-87
2022/08/10 09:39:29;;;;;;;2.30;1.40;;;;;;;-148.88;40.75;74968.88;4996557;28;20054;-87
2022/08/10 09:42:32;;;;;;;3.50;1.70;;;;;;;-148.88;40.37;74930.31;4996126;28;20018;-84
2022/08/10 09:45:22;;;;;;;3.28;1.35;;;;;;;-148.88;39.66;74859.22;4995412;28;20044;-86
2022/08/10 09:48:25;;;;;;;2.22;1.17;;;;;;;-148.88;39.11;74851.09;4995517;28;20029;-85
2022/08/10 09:51:15;;;;;;;2.40;1.43;;;;;;;-148.88;38.98;74814.53;4996754;28;20026;-87
2022/08/10 09:53:54;;;;;;;2.83;1.27;;;;;;;-148.88;37.57;74806.44;4996739;28;20022;-89
2022/08/10 09:56:48;;;;;;;5.40;1.50;;;;;;;-148.88;37.82;74773.94;4996605;28;20030;-87
2022/08/10 09:59:21;;;;;;;;;;;;;;;-148.88;37.24;74765.81;4996625;28;20018;-87
2022/08/10 10:02:06;;;;;;;4.00;1.58;;;;;;;-148.88;36.98;74761.75;4995694;28;19915;-89
2022/08/10 10:04:45;;;;;;;2.60;1.40;;;;;;;-148.88;36.00;74767.84;4995647;28;20389;-86
2022/08/10 10:07:21;;;;;;;2.80;1.60;;;;;;;-148.88;38.16;74721.13;4995693;28;20373;-83
2022/08/10 10:10:23;;;;;;;3.13;1.30;;;;;;;-148.88;35.35;74688.66;4996007;28;20026;-86
2022/08/10 10:12:58;;;;;;;2.25;1.30;;;;;;;-148.88;35.20;74668.34;4995214;28;20373;-85
2022/08/10 10:16:07;;;;;;;3.13;1.30;;;;;;;-148.88;34.70;74660.22;4995575;28;20026;-86
2022/08/10 10:18:59;;;;;;;4.75;1.40;;;;;;;-148.88;34.94;74666.31;4994493;28;20030;-86
2022/08/10 10:22:06;;;;;;;1.88;1.20;;;;;;;-148.88;34.81;74609.44;4995035;28;20034;-85
2022/08/10 10:24:44;;;;;;;2.60;1.55;;;;;;;-148.88;33.67;74625.69;4988193;28;20519;-86
2022/08/10 10:27:25;;;;;;;3.85;1.30;;;;;;;-148.88;35.68;74558.69;4995229;28;20026;-85
2022/08/10 10:30:02;;;;;;;2.10;1.30;;;;;;;-148.88;33.74;74536.34;4995420;28;20057;-85
2022/08/10 10:32:33;;;;;;;2.95;1.65;;;;;;;-148.88;33.04;74509.94;4995293;28;20023;-85
2022/08/10 10:35:04;;;;;;;2.90;1.50;;;;;;;-148.88;31.75;74538.38;4995007;28;20481;-85
2022/08/10 10:37:32;;;;;;;3.28;1.33;;;;;;;-148.88;32.92;74479.50;4995942;28;20030;-87
2022/08/10 10:40:00;;;;;;;4.63;1.20;;;;;;;-148.88;32.32;74524.16;4995011;28;20034;-85
2022/08/10 10:42:42;;;;;;;2.42;1.30;;;;;;;-148.88;32.18;74528.22;4994941;28;20026;-86
2022/08/10 10:45:18;;;;;;;2.97;1.35;;;;;;;-148.88;33.11;74489.66;4995290;28;20045;-86
2022/08/10 10:48:07;;;;;;;5.22;1.40;;;;;;;-148.88;31.92;74509.94;4994950;28;20030;-88
2022/08/10 10:50:42;;;;;;;3.08;1.20;;;;;;;-148.88;32.51;74440.91;4995183;28;20023;-87
2022/08/10 10:53:20;;;;;;;4.35;1.50;;;;;;;-148.88;32.22;74440.91;4995349;28;20037;-87
2022/08/10 10:55:55;;;;;;;2.53;1.40;;;;;;;-148.88;32.69;74440.91;4994753;28;20026;-86
2022/08/10 10:58:29;;;;;;;3.65;1.58;;;;;;;-148.88;31.75;74444.97;4994979;28;20018;-85
2022/08/10 11:01:02;;;;;;;4.35;1.50;;;;;;;-148.88;31.63;74434.81;4995375;28;20023;-85
2022/08/10 11:03:46;;;;;;;2.30;1.40;;;;;;;-148.88;32.22;74459.19;4993421;28;20112;-85
2022/08/10 11:06:23;;;;;;;3.42;1.50;;;;;;;-148.88;31.82;74457.16;4994628;28;20022;-86
2022/08/10 11:08:56;;;;;;;5.28;1.55;;;;;;;-148.88;31.68;74384.06;4994679;28;20032;-87
2022/08/10 11:11:27;;;;;;;2.30;1.27;;;;;;;-148.88;31.28;74373.91;4994574;28;20050;-86
2022/08/10 11:14:30;;;;;;;2.55;1.48;;;;;;;-148.88;29.96;74351.56;4994538;28;20037;-87
2022/08/10 11:17:21;;;;;;;2.67;1.40;;;;;;;-148.88;31.16;74327.19;4994354;28;20022;-87
2022/08/10 11:19:53;;;;;;;4.72;1.60;;;;;;;-148.88;31.07;74339.38;4994653;28;20101;-87
2022/08/10 11:22:29;;;;;;;7.97;1.70;;;;;;;-148.88;32.01;74294.72;4994520;28;20062;-87
2022/08/10 11:25:12;;;;;;;3.10;1.60;;;;;;;-148.88;31.20;74347.50;4993894;28;20034;-88
2022/08/10 11:28:02;;;;;;;4.75;1.58;;;;;;;-148.88;31.47;74440.91;4994195;28;20038;-86
2022/08/10 11:30:42;;;;;;;3.80;1.60;;;;;;;-148.88;30.61;74359.69;4994574;28;20032;-88
2022/08/10 11:33:22;;;;;;;3.88;1.60;;;;;;;-148.88;31.31;74353.59;4994407;28;20069;-87
2022/08/10 11:35:52;;;;;;;4.07;1.35;;;;;;;-148.88;30.68;74329.22;4992600;28;20034;-85
2022/08/10 11:38:36;;;;;;;2.92;1.33;;;;;;;-148.88;31.95;74343.44;4994140;28;20026;-86
2022/08/10 11:41:26;;;;;;;3.75;1.40;;;;;;;-148.88;30.45;74323.16;4993706;28;20511;-85